createdAt,value
2023-04-08T00:00:29.785Z,7.46
2023-04-08T00:02:56.702Z,7.40
2023-04-08T00:05:23.654Z,7.32
2023-04-08T00:07:50.591Z,7.31
2023-04-08T00:10:17.444Z,7.25
2023-04-08T00:12:44.363Z,7.13
2023-04-08T00:15:11.352Z,7.08
2023-04-08T00:17:38.188Z,7.12
2023-04-08T00:20:05.847Z,7.10
2023-04-08T00:22:32.694Z,7.09
2023-04-08T00:24:59.491Z,7.06
2023-04-08T00:27:26.285Z,7.03
2023-04-08T00:29:53.075Z,7.10
2023-04-08T00:32:19.930Z,6.98
2023-04-08T00:34:46.712Z,6.96
2023-04-08T00:37:13.496Z,6.94
2023-04-08T00:39:40.333Z,6.94
2023-04-08T00:42:07.167Z,6.96
2023-04-08T00:44:34.191Z,6.99
2023-04-08T00:47:01.241Z,6.99
2023-04-08T00:49:28.156Z,7.01
2023-04-08T00:51:55.946Z,6.96
2023-04-08T00:54:23.027Z,6.97
2023-04-08T00:56:49.867Z,6.98
2023-04-08T00:59:18.047Z,7.02
2023-04-08T01:02:08.863Z,6.93
2023-04-08T01:05:00.412Z,6.89
2023-04-08T01:07:42.041Z,6.81
2023-04-08T01:10:15.927Z,6.89
2023-04-08T01:12:50.708Z,6.92
2023-04-08T01:15:18.020Z,6.92
2023-04-08T01:17:46.457Z,6.95
2023-04-08T01:20:15.543Z,7.04
2023-04-08T01:23:00.742Z,7.05
2023-04-08T01:25:36.749Z,7.11
2023-04-08T01:28:12.261Z,7.09
2023-04-08T01:30:40.861Z,7.18
2023-04-08T01:33:08.517Z,7.25
2023-04-08T01:35:36.375Z,7.24
2023-04-08T01:38:06.743Z,7.30
2023-04-08T01:40:35.776Z,7.37
2023-04-08T01:43:05.573Z,7.37
2023-04-08T01:45:32.425Z,7.39
2023-04-08T01:48:00.721Z,7.48
2023-04-08T01:50:29.094Z,7.52
2023-04-08T01:52:57.246Z,7.62
2023-04-08T01:55:25.452Z,7.71
2023-04-08T01:57:53.656Z,7.78
2023-04-08T02:00:26.473Z,7.81
2023-04-08T02:02:54.785Z,7.89
2023-04-08T02:05:21.738Z,7.95
2023-04-08T02:07:48.971Z,7.99
2023-04-08T02:10:16.316Z,7.84
2023-04-08T02:12:44.751Z,7.67
2023-04-08T02:15:13.081Z,7.56
2023-04-08T02:18:14.488Z,7.12
2023-04-08T02:20:48.494Z,7.15
2023-04-08T02:23:23.711Z,7.31
2023-04-08T02:25:51.243Z,7.63
2023-04-08T02:28:19.811Z,8.09
2023-04-08T02:30:52.418Z,8.20
2023-04-08T02:33:22.373Z,8.35
2023-04-08T02:35:55.961Z,8.34
2023-04-08T02:38:24.219Z,8.35
2023-04-08T02:40:51.585Z,8.46
2023-04-08T02:43:18.552Z,8.45
2023-04-08T02:45:46.316Z,8.47
2023-04-08T02:48:13.186Z,8.52
2023-04-08T02:50:41.146Z,8.47
2023-04-08T02:53:09.158Z,8.56
2023-04-08T02:55:36.070Z,8.58
2023-04-08T02:58:02.920Z,8.61
2023-04-08T03:00:29.815Z,8.60
2023-04-08T03:02:57.220Z,8.61
2023-04-08T03:05:26.833Z,8.64
2023-04-08T03:07:53.719Z,8.61
2023-04-08T03:10:20.477Z,8.66
2023-04-08T03:12:47.329Z,8.69
2023-04-08T03:15:14.207Z,8.66
2023-04-08T03:17:41.297Z,8.62
2023-04-08T03:20:09.216Z,8.62
2023-04-08T03:22:37.158Z,8.61
2023-04-08T03:25:04.412Z,8.63
2023-04-08T03:27:31.315Z,8.60
2023-04-08T03:29:58.709Z,8.54
2023-04-08T03:32:25.826Z,8.50
2023-04-08T03:34:52.784Z,8.39
2023-04-08T03:37:19.583Z,8.41
2023-04-08T03:39:46.522Z,8.48
2023-04-08T03:42:13.353Z,8.48
2023-04-08T03:44:40.189Z,8.51
2023-04-08T03:47:07.026Z,8.60
2023-04-08T03:49:33.872Z,8.63
2023-04-08T03:52:00.643Z,8.69
2023-04-08T03:54:27.502Z,8.72
2023-04-08T03:56:54.400Z,8.75
2023-04-08T03:59:21.252Z,8.76
2023-04-08T04:01:48.157Z,8.72
2023-04-08T04:04:16.422Z,8.71
2023-04-08T04:06:43.369Z,8.68
2023-04-08T04:09:11.140Z,8.63
2023-04-08T04:11:38.089Z,8.67
2023-04-08T04:14:04.882Z,8.65
2023-04-08T04:16:32.979Z,8.57
2023-04-08T04:19:00.336Z,8.55
2023-04-08T04:21:27.345Z,8.50
2023-04-08T04:23:54.221Z,8.43
2023-04-08T04:26:21.460Z,8.46
2023-04-08T04:28:48.746Z,8.50
2023-04-08T04:31:26.418Z,8.51
2023-04-08T04:33:53.616Z,8.54
2023-04-08T04:36:20.561Z,8.52
2023-04-08T04:38:50.053Z,8.55
2023-04-08T04:41:17.605Z,8.55
2023-04-08T04:43:44.445Z,8.62
2023-04-08T04:46:11.432Z,8.65
2023-04-08T04:48:38.343Z,8.71
2023-04-08T04:51:05.255Z,8.73
2023-04-08T04:53:32.059Z,8.79
2023-04-08T04:56:01.077Z,8.77
2023-04-08T04:58:28.603Z,8.85
2023-04-08T05:00:56.058Z,8.97
2023-04-08T05:03:23.114Z,9.08
2023-04-08T05:05:54.383Z,9.09
2023-04-08T05:08:21.533Z,9.13
2023-04-08T05:10:50.523Z,9.18
2023-04-08T05:13:20.673Z,9.24
2023-04-08T05:15:47.916Z,9.34
2023-04-08T05:18:15.062Z,9.39
2023-04-08T05:20:42.067Z,9.41
2023-04-08T05:23:09.064Z,9.44
2023-04-08T05:25:36.161Z,9.50
2023-04-08T05:28:03.700Z,9.58
2023-04-08T05:30:30.878Z,9.41
2023-04-08T05:33:00.194Z,9.52
2023-04-08T05:35:28.388Z,9.55
2023-04-08T05:37:55.360Z,9.61
2023-04-08T05:40:22.240Z,9.39
2023-04-08T05:42:49.081Z,9.52
2023-04-08T05:45:16.236Z,9.56
2023-04-08T05:47:43.148Z,9.59
2023-04-08T05:50:11.278Z,9.68
2023-04-08T05:52:43.073Z,9.68
2023-04-08T05:55:09.990Z,9.84
2023-04-08T05:57:37.088Z,9.82
2023-04-08T06:00:06.503Z,9.90
2023-04-08T06:02:33.466Z,9.96
2023-04-08T06:05:01.747Z,10.03
2023-04-08T06:07:28.673Z,10.03
2023-04-08T06:09:55.862Z,9.96
2023-04-08T06:12:22.665Z,10.04
2023-04-08T06:14:55.706Z,10.06
2023-04-08T06:17:23.122Z,9.99
2023-04-08T06:19:50.160Z,10.00
2023-04-08T06:22:16.935Z,10.22
2023-04-08T06:24:43.791Z,10.27
2023-04-08T06:27:10.624Z,10.32
2023-04-08T06:29:37.403Z,10.58
2023-04-08T06:32:04.345Z,10.66
2023-04-08T06:34:31.184Z,10.89
2023-04-08T06:36:58.045Z,10.95
2023-04-08T06:39:24.811Z,10.98
2023-04-08T06:41:52.342Z,10.96
2023-04-08T06:44:19.127Z,10.71
2023-04-08T06:46:46.724Z,11.02
2023-04-08T06:49:13.595Z,11.02
2023-04-08T06:51:40.368Z,11.05
2023-04-08T06:54:07.173Z,11.19
2023-04-08T06:56:33.944Z,11.18
2023-04-08T06:59:01.277Z,11.38
2023-04-08T07:01:28.153Z,11.50
2023-04-08T07:03:55.042Z,11.60
2023-04-08T07:06:21.870Z,11.78
2023-04-08T07:08:49.056Z,11.72
2023-04-08T07:11:16.200Z,11.65
2023-04-08T07:13:43.794Z,11.76
2023-04-08T07:16:10.740Z,11.53
2023-04-08T07:18:37.943Z,11.75
2023-04-08T07:21:05.107Z,11.57
2023-04-08T07:23:31.934Z,11.65
2023-04-08T07:26:04.429Z,11.78
2023-04-08T07:28:32.033Z,11.92
2023-04-08T07:31:10.337Z,11.79
2023-04-08T07:33:37.174Z,11.78
2023-04-08T07:36:04.249Z,11.82
2023-04-08T07:38:31.265Z,11.94
2023-04-08T07:40:58.142Z,11.85
2023-04-08T07:43:24.963Z,11.95
2023-04-08T07:45:52.013Z,11.95
2023-04-08T07:48:18.976Z,11.92
2023-04-08T07:51:08.990Z,12.00
2023-04-08T07:53:34.378Z,11.84
2023-04-08T07:56:03.965Z,11.77
2023-04-08T07:58:32.099Z,11.85
2023-04-08T08:00:59.522Z,11.91
2023-04-08T08:03:27.357Z,12.05
2023-04-08T08:05:54.293Z,12.10
2023-04-08T08:08:21.299Z,12.01
2023-04-08T08:10:48.127Z,12.05
2023-04-08T08:13:17.210Z,12.33
2023-04-08T08:15:44.068Z,12.55
2023-04-08T08:18:10.973Z,12.77
2023-04-08T08:20:37.842Z,13.00
2023-04-08T08:23:04.676Z,12.93
2023-04-08T08:25:31.517Z,12.87
2023-04-08T08:27:58.355Z,12.49
2023-04-08T08:30:26.492Z,12.16
2023-04-08T08:32:53.499Z,12.10
2023-04-08T08:35:20.609Z,12.27
2023-04-08T08:37:47.521Z,12.18
2023-04-08T08:40:15.260Z,12.18
2023-04-08T08:42:42.264Z,12.33
2023-04-08T08:45:09.551Z,12.58
2023-04-08T08:47:36.461Z,12.75
2023-04-08T08:50:03.372Z,12.63
2023-04-08T08:52:30.454Z,12.26
2023-04-08T08:54:59.157Z,12.33
2023-04-08T08:57:26.703Z,12.34
2023-04-08T08:59:53.600Z,12.28
2023-04-08T09:02:32.370Z,12.13
2023-04-08T09:05:04.508Z,11.78
2023-04-08T09:07:36.329Z,12.41
2023-04-08T09:10:04.243Z,12.39
2023-04-08T09:12:31.588Z,11.92
2023-04-08T09:15:09.557Z,12.05
2023-04-08T09:17:39.302Z,11.79
2023-04-08T09:20:14.960Z,11.92
2023-04-08T09:23:00.290Z,12.03
2023-04-08T09:25:34.337Z,12.33
2023-04-08T09:28:02.937Z,12.09
2023-04-08T09:30:32.428Z,12.16
2023-04-08T09:33:00.533Z,12.35
2023-04-08T09:35:27.395Z,12.16
2023-04-08T09:37:54.343Z,11.78
2023-04-08T09:40:22.210Z,11.93
2023-04-08T09:42:53.580Z,12.36
2023-04-08T09:45:20.740Z,11.99
2023-04-08T09:48:19.224Z,11.74
2023-04-08T09:50:51.199Z,11.24
2023-04-08T09:53:31.823Z,11.24
2023-04-08T09:56:00.755Z,11.32
2023-04-08T09:58:39.328Z,11.28
2023-04-08T10:01:08.227Z,11.58
2023-04-08T10:03:40.835Z,11.74
2023-04-08T10:06:08.948Z,11.83
2023-04-08T10:08:36.000Z,11.61
2023-04-08T10:11:03.014Z,11.76
2023-04-08T10:13:30.524Z,11.68
2023-04-08T10:16:25.763Z,12.18
2023-04-08T10:18:57.155Z,12.32
2023-04-08T10:21:37.889Z,11.48
2023-04-08T10:24:11.653Z,12.05
2023-04-08T10:26:44.432Z,12.27
2023-04-08T10:29:29.326Z,12.14
2023-04-08T10:31:57.694Z,11.80
2023-04-08T10:34:26.869Z,11.75
2023-04-08T10:36:56.894Z,11.45
2023-04-08T10:39:27.171Z,11.56
2023-04-08T10:41:54.371Z,11.27
2023-04-08T10:44:23.594Z,11.31
2023-04-08T10:46:53.285Z,11.34
2023-04-08T10:49:21.884Z,11.00
2023-04-08T10:51:49.357Z,11.27
2023-04-08T10:54:18.211Z,11.06
2023-04-08T10:56:50.582Z,10.75
2023-04-08T10:59:27.829Z,11.01
2023-04-08T11:01:55.508Z,11.31
2023-04-08T11:04:23.686Z,11.34
2023-04-08T11:06:51.520Z,11.14
2023-04-08T11:09:18.446Z,10.94
2023-04-08T11:11:46.775Z,10.60
2023-04-08T11:14:14.264Z,10.15
2023-04-08T11:16:41.184Z,10.76
2023-04-08T11:19:08.883Z,10.67
2023-04-08T11:21:37.438Z,10.80
2023-04-08T11:24:16.444Z,10.49
2023-04-08T11:26:43.565Z,10.79
2023-04-08T11:29:14.239Z,11.01
2023-04-08T11:31:42.951Z,11.15
2023-04-08T11:34:10.052Z,11.20
2023-04-08T11:36:36.971Z,11.59
2023-04-08T11:39:09.426Z,11.80
2023-04-08T11:41:38.916Z,11.71
2023-04-08T11:44:07.014Z,11.12
2023-04-08T11:46:35.534Z,11.73
2023-04-08T11:49:07.940Z,11.70
2023-04-08T11:51:55.265Z,11.76
2023-04-08T11:54:32.782Z,11.94
2023-04-08T11:57:00.139Z,12.04
2023-04-08T11:59:29.012Z,11.79
2023-04-08T12:01:56.769Z,11.63
2023-04-08T12:04:23.769Z,11.68
2023-04-08T12:06:50.732Z,11.37
2023-04-08T12:09:17.577Z,11.30
2023-04-08T12:11:44.638Z,11.43
2023-04-08T12:14:11.472Z,11.66
2023-04-08T12:16:38.511Z,11.57
2023-04-08T12:19:05.431Z,11.07
2023-04-08T12:21:33.965Z,11.26
2023-04-08T12:24:01.732Z,11.34
2023-04-08T12:26:28.600Z,11.38
2023-04-08T12:28:55.501Z,11.38
2023-04-08T12:31:22.722Z,11.42
2023-04-08T12:33:49.723Z,11.54
2023-04-08T12:36:17.263Z,11.41
2023-04-08T12:38:44.148Z,11.37
2023-04-08T12:41:11.049Z,11.50
2023-04-08T12:43:39.088Z,11.56
2023-04-08T12:46:06.060Z,11.73
2023-04-08T12:48:33.169Z,11.43
2023-04-08T12:51:00.101Z,11.73
2023-04-08T12:53:27.037Z,11.75
2023-04-08T12:55:57.232Z,12.10
2023-04-08T12:58:27.110Z,12.38
2023-04-08T13:00:53.946Z,12.45
2023-04-08T13:03:21.640Z,12.46
2023-04-08T13:05:48.732Z,12.80
2023-04-08T13:08:16.726Z,12.43
2023-04-08T13:10:43.637Z,12.62
2023-04-08T13:13:10.496Z,12.16
2023-04-08T13:15:38.007Z,12.78
2023-04-08T13:18:04.993Z,13.04
2023-04-08T13:20:31.952Z,12.76
2023-04-08T13:23:00.527Z,12.43
2023-04-08T13:25:27.390Z,12.68
2023-04-08T13:27:54.217Z,12.85
2023-04-08T13:30:21.055Z,12.72
2023-04-08T13:32:48.015Z,12.23
2023-04-08T13:35:14.876Z,12.25
2023-04-08T13:37:42.256Z,12.14
2023-04-08T13:40:09.793Z,12.28
2023-04-08T13:42:37.455Z,12.31
2023-04-08T13:45:04.755Z,12.30
2023-04-08T13:47:31.601Z,11.77
2023-04-08T13:49:58.474Z,12.11
2023-04-08T13:52:26.376Z,11.70
2023-04-08T13:54:53.218Z,12.25
2023-04-08T13:57:20.276Z,12.31
2023-04-08T13:59:53.183Z,12.37
2023-04-08T14:02:20.248Z,12.37
2023-04-08T14:04:47.553Z,12.26
2023-04-08T14:07:14.802Z,12.47
2023-04-08T14:09:41.721Z,12.49
2023-04-08T14:12:08.791Z,12.38
2023-04-08T14:14:35.785Z,12.21
2023-04-08T14:17:02.873Z,12.16
2023-04-08T14:19:29.865Z,12.38
2023-04-08T14:21:57.095Z,12.00
2023-04-08T14:24:24.026Z,12.32
2023-04-08T14:26:51.375Z,12.26
2023-04-08T14:29:18.193Z,12.03
2023-04-08T14:31:45.910Z,12.08
2023-04-08T14:34:13.199Z,12.15
2023-04-08T14:36:40.143Z,12.29
2023-04-08T14:39:06.991Z,11.88
2023-04-08T14:41:33.907Z,11.96
2023-04-08T14:44:00.747Z,11.93
2023-04-08T14:46:29.084Z,11.84
2023-04-08T14:48:56.146Z,11.67
2023-04-08T14:51:23.058Z,11.40
2023-04-08T14:53:49.847Z,11.64
2023-04-08T14:56:16.689Z,11.72
2023-04-08T14:58:43.473Z,11.72
2023-04-08T15:01:11.468Z,11.82
2023-04-08T15:03:38.485Z,11.83
2023-04-08T15:06:05.472Z,11.58
2023-04-08T15:08:32.374Z,11.40
2023-04-08T15:10:59.169Z,11.61
2023-04-08T15:13:26.053Z,11.58
2023-04-08T15:15:54.163Z,11.68
2023-04-08T15:18:21.919Z,11.70
2023-04-08T15:20:48.806Z,11.81
2023-04-08T15:23:15.670Z,11.89
2023-04-08T15:25:42.562Z,11.76
2023-04-08T15:28:09.390Z,11.76
2023-04-08T15:30:36.384Z,11.73
2023-04-08T15:33:04.488Z,11.69
2023-04-08T15:35:32.878Z,11.62
2023-04-08T15:38:00.571Z,11.68
2023-04-08T15:40:27.503Z,11.57
2023-04-08T15:42:54.432Z,11.75
2023-04-08T15:45:22.071Z,11.83
2023-04-08T15:47:49.089Z,11.79
2023-04-08T15:50:17.173Z,11.75
2023-04-08T15:52:44.628Z,11.86
2023-04-08T15:55:11.820Z,11.96
2023-04-08T15:57:39.024Z,12.15
2023-04-08T16:00:10.912Z,12.26
2023-04-08T16:02:38.443Z,12.14
2023-04-08T16:05:05.956Z,12.16
2023-04-08T16:07:32.744Z,11.94
2023-04-08T16:09:59.718Z,12.13
2023-04-08T16:12:26.944Z,12.21
2023-04-08T16:14:53.956Z,12.14
2023-04-08T16:17:20.918Z,12.16
2023-04-08T16:19:47.958Z,12.21
2023-04-08T16:22:15.833Z,12.37
2023-04-08T16:24:42.680Z,12.07
2023-04-08T16:27:09.542Z,12.11
2023-04-08T16:29:36.443Z,12.03
2023-04-08T16:32:04.313Z,11.92
2023-04-08T16:34:31.163Z,11.70
2023-04-08T16:36:58.116Z,11.69
2023-04-08T16:39:24.977Z,11.84
2023-04-08T16:41:51.780Z,11.73
2023-04-08T16:44:18.549Z,11.73
2023-04-08T16:46:45.512Z,11.83
2023-04-08T16:49:14.520Z,11.78
2023-04-08T16:51:42.423Z,11.77
2023-04-08T16:54:09.306Z,11.70
2023-04-08T16:56:36.220Z,11.64
2023-04-08T16:59:03.082Z,11.62
2023-04-08T17:01:30.012Z,11.68
2023-04-08T17:03:57.640Z,11.74
2023-04-08T17:06:24.626Z,11.64
2023-04-08T17:08:51.951Z,11.71
2023-04-08T17:11:19.257Z,11.68
2023-04-08T17:13:46.270Z,11.59
2023-04-08T17:16:17.430Z,11.68
2023-04-08T17:18:45.185Z,11.65
2023-04-08T17:21:13.988Z,11.51
2023-04-08T17:23:40.891Z,11.55
2023-04-08T17:26:09.401Z,11.60
2023-04-08T17:28:36.750Z,11.58
2023-04-08T17:31:03.755Z,11.38
2023-04-08T17:33:30.675Z,11.51
2023-04-08T17:35:59.317Z,11.52
2023-04-08T17:38:26.223Z,11.57
2023-04-08T17:40:53.127Z,11.51
2023-04-08T17:43:19.977Z,11.49
2023-04-08T17:45:46.958Z,11.48
2023-04-08T17:48:13.856Z,11.46
2023-04-08T17:50:40.841Z,11.44
2023-04-08T17:53:07.724Z,11.46
2023-04-08T17:55:34.584Z,11.36
2023-04-08T17:58:02.105Z,11.37
2023-04-08T18:00:29.095Z,11.35
2023-04-08T18:02:56.124Z,11.32
2023-04-08T18:05:23.066Z,11.29
2023-04-08T18:07:51.166Z,11.24
2023-04-08T18:10:18.524Z,11.20
2023-04-08T18:12:45.737Z,11.13
2023-04-08T18:15:12.857Z,11.14
2023-04-08T18:17:39.700Z,11.15
2023-04-08T18:20:07.482Z,11.09
2023-04-08T18:22:34.333Z,11.02
2023-04-08T18:25:01.310Z,10.96
2023-04-08T18:27:28.588Z,10.95
2023-04-08T18:29:55.766Z,10.96
2023-04-08T18:32:22.768Z,11.00
2023-04-08T18:34:53.825Z,11.01
2023-04-08T18:37:21.748Z,10.96
2023-04-08T18:39:48.903Z,10.93
2023-04-08T18:42:16.156Z,11.01
2023-04-08T18:44:43.371Z,10.94
2023-04-08T18:47:11.104Z,10.91
2023-04-08T18:49:41.136Z,10.94
2023-04-08T18:52:08.562Z,10.97
2023-04-08T18:54:35.817Z,11.02
2023-04-08T18:57:03.074Z,11.07
2023-04-08T18:59:30.295Z,11.03
2023-04-08T19:01:58.101Z,11.01
2023-04-08T19:04:25.236Z,10.98
2023-04-08T19:06:52.523Z,10.97
2023-04-08T19:09:19.783Z,10.91
2023-04-08T19:11:48.329Z,10.92
2023-04-08T19:14:15.649Z,10.97
2023-04-08T19:16:42.506Z,10.98
2023-04-08T19:19:09.379Z,11.01
2023-04-08T19:21:37.838Z,11.00
2023-04-08T19:24:06.352Z,10.95
2023-04-08T19:26:33.898Z,10.97
2023-04-08T19:29:01.200Z,10.86
2023-04-08T19:31:28.504Z,10.79
2023-04-08T19:33:55.828Z,10.67
2023-04-08T19:36:22.821Z,10.65
2023-04-08T19:38:49.654Z,10.61
2023-04-08T19:41:16.814Z,10.55
2023-04-08T19:43:43.756Z,10.56
2023-04-08T19:46:10.738Z,10.56
2023-04-08T19:48:38.067Z,10.51
2023-04-08T19:51:05.143Z,10.46
2023-04-08T19:53:32.321Z,10.45
2023-04-08T19:56:02.247Z,10.51
2023-04-08T19:58:29.197Z,10.54
2023-04-08T20:00:56.525Z,10.54
2023-04-08T20:03:23.880Z,10.56
2023-04-08T20:05:51.107Z,10.61
2023-04-08T20:08:18.073Z,10.57
2023-04-08T20:10:46.455Z,10.55
2023-04-08T20:13:14.667Z,10.45
2023-04-08T20:15:41.955Z,10.47
2023-04-08T20:18:09.234Z,10.41
2023-04-08T20:20:36.147Z,10.37
2023-04-08T20:23:02.974Z,10.37
2023-04-08T20:25:29.995Z,10.35
2023-04-08T20:27:57.334Z,10.41
2023-04-08T20:30:24.136Z,10.47
2023-04-08T20:32:51.073Z,10.48
2023-04-08T20:35:18.470Z,10.43
2023-04-08T20:37:46.161Z,10.43
2023-04-08T20:40:13.377Z,10.44
2023-04-08T20:42:40.313Z,10.42
2023-04-08T20:45:08.210Z,10.44
2023-04-08T20:47:35.599Z,10.40
2023-04-08T20:50:03.560Z,10.47
2023-04-08T20:52:30.578Z,10.51
2023-04-08T20:54:57.501Z,10.51
2023-04-08T20:57:24.333Z,10.49
2023-04-08T20:59:51.384Z,10.51
2023-04-08T21:02:20.877Z,10.49
2023-04-08T21:04:47.992Z,10.49
2023-04-08T21:07:14.856Z,10.57
2023-04-08T21:09:41.684Z,10.61
2023-04-08T21:12:08.627Z,10.64
2023-04-08T21:14:35.519Z,10.64
2023-04-08T21:17:02.417Z,10.61
2023-04-08T21:19:29.269Z,10.68
2023-04-08T21:21:56.115Z,10.70
2023-04-08T21:24:22.998Z,10.70
2023-04-08T21:26:49.820Z,10.67
2023-04-08T21:29:16.699Z,10.70
2023-04-08T21:31:43.580Z,10.72
2023-04-08T21:34:10.545Z,10.73
2023-04-08T21:36:37.541Z,10.73
2023-04-08T21:39:04.440Z,10.68
2023-04-08T21:41:31.588Z,10.62
2023-04-08T21:43:58.469Z,10.63
2023-04-08T21:46:25.692Z,10.62
2023-04-08T21:48:52.942Z,10.59
2023-04-08T21:51:20.095Z,10.52
2023-04-08T21:53:46.930Z,10.53
2023-04-08T21:56:14.006Z,10.48
2023-04-08T21:58:41.102Z,10.54
2023-04-08T22:01:08.160Z,10.54
2023-04-08T22:03:35.252Z,10.49
2023-04-08T22:06:02.149Z,10.50
2023-04-08T22:08:29.030Z,10.50
2023-04-08T22:10:55.837Z,10.48
2023-04-08T22:13:22.693Z,10.45
2023-04-08T22:15:49.481Z,10.49
2023-04-08T22:18:16.325Z,10.47
2023-04-08T22:20:43.146Z,10.48
2023-04-08T22:23:10.052Z,10.49
2023-04-08T22:25:36.837Z,10.54
2023-04-08T22:28:03.663Z,10.48
2023-04-08T22:30:30.972Z,10.35
2023-04-08T22:32:57.915Z,10.00
2023-04-08T22:35:24.814Z,10.00
2023-04-08T22:37:51.794Z,10.03
2023-04-08T22:40:18.621Z,10.07
2023-04-08T22:42:45.509Z,10.09
2023-04-08T22:45:12.331Z,10.11
2023-04-08T22:47:39.219Z,10.12
2023-04-08T22:50:06.973Z,10.14
2023-04-08T22:52:33.856Z,10.43
2023-04-08T22:55:00.799Z,10.30
2023-04-08T22:57:27.619Z,10.16
2023-04-08T22:59:54.427Z,10.14
2023-04-08T23:02:21.511Z,10.09
2023-04-08T23:04:48.591Z,10.10
2023-04-08T23:07:15.560Z,10.09
2023-04-08T23:09:42.378Z,10.06
2023-04-08T23:12:09.203Z,9.93
2023-04-08T23:14:36.058Z,9.84
2023-04-08T23:17:05.410Z,9.96
2023-04-08T23:19:32.380Z,9.97
2023-04-08T23:21:59.208Z,9.93
2023-04-08T23:24:26.082Z,9.82
2023-04-08T23:26:52.903Z,9.81
2023-04-08T23:29:19.721Z,9.87
2023-04-08T23:31:46.544Z,9.92
2023-04-08T23:34:13.353Z,9.96
2023-04-08T23:36:40.289Z,9.96
2023-04-08T23:39:07.128Z,9.95
2023-04-08T23:41:34.082Z,10.05
2023-04-08T23:44:00.922Z,9.99
2023-04-08T23:46:27.815Z,9.94
2023-04-08T23:48:54.797Z,10.00
2023-04-08T23:51:21.735Z,10.00
2023-04-08T23:53:48.593Z,10.01
2023-04-08T23:56:15.653Z,9.91
2023-04-08T23:58:42.499Z,9.78
